RPUI weather

Iba Airport
Iba, Zambales Province, Philippines

Public forecast

Using degrees Celsius for public forecast. Weather courtesy of forecast.io.

METAR (pilot weather report)

Closest report is Diosdado Macapagal International Airport, 35.2 nm (65.2 km) ESE. Retrieved 2019/06/16 02:00 UTC (22 minutes ago):

RPLC 160200Z 18004KT 9999 SCT020 BKN300 31/25 Q1009 NOSIG RMK A2980

TAF (pilot weather forecast)

Forecast is more than 12 hours old.

Closest forecast is Diosdado Macapagal International Airport, 35.2 nm (65.2 km) ESE. Retrieved 2019/06/15 00:03 UTC (1 day ago):

TAF RPLC 152300Z 1600/1706 32005KT 9999 FEW020 BKN300 TX31/1606Z TN25/1622Z TEMPO 1600/1606 29010KT 8000 -TSRA SCT018 OVC090